createdAt,value
2023-04-24T00:01:51.312Z,17.30
2023-04-24T00:04:18.473Z,17.20
2023-04-24T00:06:50.368Z,17.20
2023-04-24T00:09:17.463Z,17.20
2023-04-24T00:11:44.434Z,17.20
2023-04-24T00:14:11.351Z,17.20
2023-04-24T00:16:38.341Z,17.20
2023-04-24T00:19:06.922Z,17.20
2023-04-24T00:21:33.866Z,17.20
2023-04-24T00:24:00.877Z,17.30
2023-04-24T00:26:27.873Z,17.20
2023-04-24T00:28:54.820Z,17.20
2023-04-24T00:31:22.205Z,17.10
2023-04-24T00:33:49.211Z,17.00
2023-04-24T00:36:16.172Z,16.90
2023-04-24T00:38:43.087Z,16.80
2023-04-24T00:41:10.394Z,16.70
2023-04-24T00:43:37.328Z,16.70
2023-04-24T00:46:04.855Z,16.70
2023-04-24T00:48:32.619Z,16.60
2023-04-24T00:50:59.682Z,16.60
2023-04-24T00:53:26.650Z,16.60
2023-04-24T00:55:53.741Z,16.70
2023-04-24T00:58:21.003Z,16.70
2023-04-24T01:00:50.016Z,16.70
2023-04-24T01:03:17.903Z,16.80
2023-04-24T01:05:44.987Z,16.80
2023-04-24T01:08:12.629Z,16.70
2023-04-24T01:10:41.714Z,16.70
2023-04-24T01:13:09.431Z,16.60
2023-04-24T01:15:36.579Z,16.60
2023-04-24T01:18:04.529Z,16.60
2023-04-24T01:20:32.900Z,16.60
2023-04-24T01:22:59.981Z,16.60
2023-04-24T01:25:28.600Z,16.70
2023-04-24T01:27:58.038Z,16.70
2023-04-24T01:30:25.203Z,16.70
2023-04-24T01:32:53.252Z,16.80
2023-04-24T01:35:21.148Z,16.80
2023-04-24T01:37:48.146Z,16.80
2023-04-24T01:40:15.455Z,16.90
2023-04-24T01:42:43.351Z,16.90
2023-04-24T01:45:13.606Z,16.90
2023-04-24T01:47:40.859Z,16.90
2023-04-24T01:50:08.329Z,17.00
2023-04-24T01:52:37.041Z,17.00
2023-04-24T01:55:06.112Z,17.00
2023-04-24T01:57:33.731Z,17.00
2023-04-24T02:00:01.156Z,17.00
2023-04-24T02:02:30.992Z,17.10
2023-04-24T02:04:58.554Z,17.10
2023-04-24T02:07:25.607Z,17.00
2023-04-24T02:09:52.724Z,17.00
2023-04-24T02:12:19.696Z,17.00
2023-04-24T02:14:46.757Z,17.00
2023-04-24T02:17:15.076Z,16.90
2023-04-24T02:19:42.404Z,16.90
2023-04-24T02:22:11.620Z,17.00
2023-04-24T02:24:39.414Z,17.00
2023-04-24T02:27:07.643Z,17.00
2023-04-24T02:29:34.739Z,17.00
2023-04-24T02:32:02.020Z,17.00
2023-04-24T02:34:28.986Z,17.00
2023-04-24T02:36:56.013Z,17.00
2023-04-24T02:39:23.115Z,17.00
2023-04-24T02:41:50.124Z,17.00
2023-04-24T02:44:18.289Z,17.00
2023-04-24T02:46:45.671Z,17.00
2023-04-24T02:49:13.069Z,16.90
2023-04-24T02:51:42.129Z,16.90
2023-04-24T02:54:11.028Z,16.90
2023-04-24T02:56:38.335Z,16.90
2023-04-24T02:59:07.064Z,16.90
2023-04-24T03:01:34.642Z,16.80
2023-04-24T03:04:01.987Z,16.80
2023-04-24T03:06:29.206Z,16.80
2023-04-24T03:08:56.177Z,16.80
2023-04-24T03:11:23.087Z,16.70
2023-04-24T03:13:50.071Z,16.70
2023-04-24T03:16:17.072Z,16.70
2023-04-24T03:18:43.988Z,16.70
2023-04-24T03:21:11.097Z,16.60
2023-04-24T03:23:38.093Z,16.60
2023-04-24T03:26:05.447Z,16.60
2023-04-24T03:28:34.192Z,16.60
2023-04-24T03:31:04.936Z,16.50
2023-04-24T03:33:37.140Z,16.50
2023-04-24T03:36:04.272Z,16.50
2023-04-24T03:38:39.296Z,16.50
2023-04-24T03:41:20.010Z,16.40
2023-04-24T03:43:50.759Z,16.40
2023-04-24T03:46:17.915Z,16.40
2023-04-24T03:48:54.175Z,16.40
2023-04-24T03:51:25.345Z,16.40
2023-04-24T03:53:55.936Z,16.40
2023-04-24T03:56:24.403Z,16.30
2023-04-24T03:58:51.478Z,16.30
2023-04-24T04:01:19.941Z,16.30
2023-04-24T04:03:52.186Z,16.30
2023-04-24T04:06:23.011Z,16.30
2023-04-24T04:08:51.692Z,16.20
2023-04-24T04:11:18.776Z,16.20
2023-04-24T04:13:48.982Z,16.20
2023-04-24T04:16:18.492Z,16.20
2023-04-24T04:18:46.650Z,16.20
2023-04-24T04:21:13.813Z,16.20
2023-04-24T04:23:41.352Z,16.20
2023-04-24T04:26:14.626Z,16.20
2023-04-24T04:28:57.303Z,16.20
2023-04-24T04:31:24.567Z,16.20
2023-04-24T04:33:51.877Z,16.10
2023-04-24T04:36:19.062Z,16.10
2023-04-24T04:38:50.979Z,16.10
2023-04-24T04:41:36.151Z,16.10
2023-04-24T04:44:05.574Z,16.10
2023-04-24T04:46:34.211Z,16.10
2023-04-24T04:49:09.573Z,16.00
2023-04-24T04:51:36.700Z,16.00
2023-04-24T04:54:03.696Z,16.00
2023-04-24T04:56:30.948Z,16.00
2023-04-24T04:59:00.922Z,16.00
2023-04-24T05:01:28.603Z,16.00
2023-04-24T05:03:56.773Z,15.90
2023-04-24T05:06:24.600Z,15.90
2023-04-24T05:08:52.315Z,15.90
2023-04-24T05:11:31.364Z,15.90
2023-04-24T05:13:59.681Z,15.90
2023-04-24T05:16:34.908Z,15.90
2023-04-24T05:19:02.413Z,16.00
2023-04-24T05:21:34.729Z,15.90
2023-04-24T05:24:01.848Z,15.90
2023-04-24T05:26:47.810Z,15.90
2023-04-24T05:29:17.031Z,15.90
2023-04-24T05:31:43.956Z,15.90
2023-04-24T05:34:11.263Z,15.90
2023-04-24T05:36:41.679Z,15.90
2023-04-24T05:39:09.599Z,15.80
2023-04-24T05:41:36.702Z,15.80
2023-04-24T05:44:03.651Z,15.80
2023-04-24T05:46:30.657Z,15.70
2023-04-24T05:48:57.721Z,15.70
2023-04-24T05:51:25.067Z,15.60
2023-04-24T05:53:52.288Z,15.70
2023-04-24T05:56:19.982Z,15.60
2023-04-24T05:58:47.320Z,15.70
2023-04-24T06:01:17.728Z,15.70
2023-04-24T06:03:48.681Z,15.70
2023-04-24T06:06:16.673Z,15.80
2023-04-24T06:08:45.109Z,15.80
2023-04-24T06:11:12.054Z,15.80
2023-04-24T06:13:39.867Z,15.80
2023-04-24T06:16:25.655Z,15.80
2023-04-24T06:18:59.810Z,15.80
2023-04-24T06:21:26.920Z,15.80
2023-04-24T06:23:53.991Z,15.90
2023-04-24T06:26:21.040Z,15.90
2023-04-24T06:28:48.120Z,15.90
2023-04-24T06:31:15.267Z,15.90
2023-04-24T06:33:42.271Z,16.00
2023-04-24T06:36:10.424Z,16.00
2023-04-24T06:38:37.375Z,15.90
2023-04-24T06:41:06.104Z,16.00
2023-04-24T06:43:33.323Z,15.90
2023-04-24T06:46:01.424Z,15.90
2023-04-24T06:48:28.332Z,16.00
2023-04-24T06:50:55.213Z,16.00
2023-04-24T06:53:22.142Z,16.00
2023-04-24T06:55:49.486Z,16.00
2023-04-24T06:58:17.023Z,16.00
2023-04-24T07:00:43.949Z,16.10
2023-04-24T07:03:11.146Z,16.10
2023-04-24T07:05:39.228Z,16.10
2023-04-24T07:08:07.769Z,16.10
2023-04-24T07:10:36.809Z,16.20
2023-04-24T07:13:03.819Z,16.20
2023-04-24T07:15:31.546Z,16.20
2023-04-24T07:17:58.521Z,16.20
2023-04-24T07:20:25.600Z,16.20
2023-04-24T07:22:54.869Z,16.20
2023-04-24T07:25:21.940Z,16.20
2023-04-24T07:27:50.014Z,16.30
2023-04-24T07:30:17.422Z,16.30
2023-04-24T07:32:44.350Z,16.20
2023-04-24T07:35:11.364Z,16.30
2023-04-24T07:37:38.361Z,16.20
2023-04-24T07:40:05.768Z,16.30
2023-04-24T07:42:32.708Z,16.30
2023-04-24T07:45:00.769Z,16.30
2023-04-24T07:47:27.928Z,16.40
2023-04-24T07:49:54.976Z,16.40
2023-04-24T07:52:21.977Z,16.30
2023-04-24T07:54:48.918Z,16.40
2023-04-24T07:57:15.925Z,16.40
2023-04-24T07:59:43.584Z,16.40
2023-04-24T08:02:10.785Z,16.40
2023-04-24T08:04:37.981Z,16.50
2023-04-24T08:07:05.093Z,16.50
2023-04-24T08:09:32.258Z,16.50
2023-04-24T08:11:59.333Z,16.50
2023-04-24T08:14:26.262Z,16.60
2023-04-24T08:16:57.026Z,16.60
2023-04-24T08:19:23.986Z,16.60
2023-04-24T08:21:51.041Z,16.70
2023-04-24T08:24:17.965Z,16.60
2023-04-24T08:26:45.218Z,16.60
2023-04-24T08:29:12.164Z,16.70
2023-04-24T08:31:39.144Z,16.70
2023-04-24T08:34:06.298Z,16.70
2023-04-24T08:36:46.059Z,16.60
2023-04-24T08:39:14.403Z,16.70
2023-04-24T08:41:44.314Z,16.70
2023-04-24T08:44:11.628Z,16.80
2023-04-24T08:46:38.947Z,16.80
2023-04-24T08:49:06.113Z,16.70
2023-04-24T08:51:33.043Z,16.80
2023-04-24T08:54:00.255Z,16.80
2023-04-24T08:56:28.403Z,16.80
2023-04-24T08:58:55.893Z,16.80
2023-04-24T09:01:26.023Z,16.90
2023-04-24T09:03:54.574Z,16.90
2023-04-24T09:06:22.805Z,16.90
2023-04-24T09:08:52.177Z,16.90
2023-04-24T09:11:19.406Z,17.00
2023-04-24T09:13:46.699Z,17.00
2023-04-24T09:16:15.460Z,17.00
2023-04-24T09:18:42.647Z,17.10
2023-04-24T09:21:10.839Z,17.10
2023-04-24T09:23:37.800Z,17.10
2023-04-24T09:26:08.369Z,17.10
2023-04-24T09:28:40.633Z,17.20
2023-04-24T09:31:12.526Z,17.20
2023-04-24T09:33:39.427Z,17.20
2023-04-24T09:36:07.367Z,17.20
2023-04-24T09:38:38.821Z,17.30
2023-04-24T09:41:07.927Z,17.30
2023-04-24T09:43:36.144Z,17.30
2023-04-24T09:46:08.584Z,17.30
2023-04-24T09:48:39.431Z,17.40
2023-04-24T09:51:08.179Z,17.40
2023-04-24T09:53:35.153Z,17.40
2023-04-24T09:56:13.540Z,17.50
2023-04-24T09:58:40.812Z,17.50
2023-04-24T10:01:08.087Z,17.50
2023-04-24T10:03:36.667Z,17.50
2023-04-24T10:06:10.092Z,17.60
2023-04-24T10:08:38.640Z,17.60
2023-04-24T10:11:06.442Z,17.60
2023-04-24T10:13:33.855Z,17.60
2023-04-24T10:16:02.874Z,17.70
2023-04-24T10:18:31.038Z,17.70
2023-04-24T10:20:58.412Z,17.70
2023-04-24T10:23:26.871Z,17.80
2023-04-24T10:25:54.772Z,17.80
2023-04-24T10:28:22.634Z,17.80
2023-04-24T10:30:51.326Z,17.90
2023-04-24T10:33:18.872Z,17.90
2023-04-24T10:35:50.918Z,17.90
2023-04-24T10:38:26.789Z,18.00
2023-04-24T10:41:09.262Z,18.00
2023-04-24T10:43:36.530Z,18.00
2023-04-24T10:46:05.858Z,18.10
2023-04-24T10:48:33.759Z,18.10
2023-04-24T10:51:00.891Z,18.10
2023-04-24T10:53:31.580Z,18.10
2023-04-24T10:56:14.423Z,18.20
2023-04-24T10:58:53.262Z,18.20
2023-04-24T11:01:31.647Z,18.20
2023-04-24T11:04:00.925Z,18.30
2023-04-24T11:06:35.939Z,18.30
2023-04-24T11:09:06.489Z,18.40
2023-04-24T11:11:34.255Z,18.40
2023-04-24T11:14:01.313Z,18.40
2023-04-24T11:16:35.680Z,18.40
2023-04-24T11:19:11.086Z,18.50
2023-04-24T11:21:56.524Z,18.50
2023-04-24T11:24:31.911Z,18.60
2023-04-24T11:27:09.165Z,18.60
2023-04-24T11:29:55.826Z,18.60
2023-04-24T11:32:34.872Z,18.70
2023-04-24T11:35:10.030Z,18.70
2023-04-24T11:37:38.221Z,18.70
2023-04-24T11:40:09.987Z,18.70
2023-04-24T11:42:42.085Z,18.80
2023-04-24T11:45:19.298Z,18.80
2023-04-24T11:47:46.653Z,18.90
2023-04-24T11:50:19.754Z,18.90
2023-04-24T11:52:48.604Z,19.00
2023-04-24T11:55:15.487Z,19.00
2023-04-24T11:57:50.792Z,19.00
2023-04-24T12:00:20.307Z,19.00
2023-04-24T12:02:48.316Z,19.10
2023-04-24T12:05:27.245Z,19.10
2023-04-24T12:07:54.979Z,19.10
2023-04-24T12:10:26.880Z,19.20
2023-04-24T12:12:54.394Z,19.20
2023-04-24T12:15:22.316Z,19.20
2023-04-24T12:17:52.437Z,19.30
2023-04-24T12:20:33.811Z,19.30
2023-04-24T12:23:02.246Z,19.40
2023-04-24T12:25:33.869Z,19.40
2023-04-24T12:28:04.017Z,19.40
2023-04-24T12:30:32.844Z,19.50
2023-04-24T12:33:01.820Z,19.50
2023-04-24T12:35:32.738Z,19.50
2023-04-24T12:38:14.718Z,19.60
2023-04-24T12:40:42.982Z,19.60
2023-04-24T12:43:17.647Z,19.60
2023-04-24T12:45:46.065Z,19.70
2023-04-24T12:48:15.110Z,19.70
2023-04-24T12:50:45.469Z,19.70
2023-04-24T12:53:13.452Z,19.80
2023-04-24T12:55:41.134Z,19.80
2023-04-24T12:58:08.282Z,19.90
2023-04-24T13:00:35.456Z,19.90
2023-04-24T13:03:03.256Z,19.90
2023-04-24T13:05:31.059Z,20.00
2023-04-24T13:07:58.634Z,20.00
2023-04-24T13:10:25.885Z,20.10
2023-04-24T13:12:52.932Z,20.10
2023-04-24T13:15:19.985Z,20.20
2023-04-24T13:17:46.975Z,20.20
2023-04-24T13:20:14.165Z,20.30
2023-04-24T13:22:41.222Z,20.30
2023-04-24T13:25:08.489Z,20.40
2023-04-24T13:27:35.558Z,20.40
2023-04-24T13:30:02.563Z,20.50
2023-04-24T13:32:29.997Z,20.60
2023-04-24T13:34:57.943Z,20.60
2023-04-24T13:37:24.926Z,20.60
2023-04-24T13:39:52.394Z,20.70
2023-04-24T13:42:21.046Z,20.70
2023-04-24T13:44:48.392Z,20.80
2023-04-24T13:47:15.327Z,20.80
2023-04-24T13:49:42.304Z,20.90
2023-04-24T13:52:11.315Z,21.00
2023-04-24T13:54:38.410Z,21.00
2023-04-24T13:57:05.520Z,21.10
2023-04-24T13:59:32.519Z,21.20
2023-04-24T14:01:59.476Z,21.30
2023-04-24T14:04:26.840Z,21.30
2023-04-24T14:06:53.899Z,21.40
2023-04-24T14:09:20.846Z,21.50
2023-04-24T14:11:47.847Z,21.50
2023-04-24T14:14:14.817Z,21.60
2023-04-24T14:16:41.901Z,21.70
2023-04-24T14:19:08.859Z,21.80
2023-04-24T14:21:36.011Z,21.80
2023-04-24T14:24:02.912Z,21.90
2023-04-24T14:26:30.100Z,22.00
2023-04-24T14:29:07.643Z,22.10
2023-04-24T14:31:41.057Z,22.20
2023-04-24T14:34:11.065Z,22.30
2023-04-24T14:36:38.625Z,22.40
2023-04-24T14:39:08.075Z,22.50
2023-04-24T14:41:36.965Z,22.60
2023-04-24T14:44:05.050Z,22.70
2023-04-24T14:46:32.158Z,22.80
2023-04-24T14:48:59.502Z,22.90
2023-04-24T14:51:26.604Z,23.00
2023-04-24T14:53:53.843Z,23.00
2023-04-24T14:56:20.858Z,23.10
2023-04-24T14:58:47.940Z,23.20
2023-04-24T15:01:15.342Z,23.30
2023-04-24T15:03:43.614Z,23.40
2023-04-24T15:06:11.027Z,23.50
2023-04-24T15:08:38.004Z,23.60
2023-04-24T15:11:05.317Z,23.90
2023-04-24T15:13:32.753Z,24.30
2023-04-24T15:15:59.684Z,24.80
2023-04-24T15:18:26.608Z,25.50
2023-04-24T15:20:53.536Z,26.20
2023-04-24T15:23:20.919Z,26.70
2023-04-24T15:25:48.226Z,27.40
2023-04-24T15:28:17.004Z,28.00
2023-04-24T15:30:43.923Z,28.50
2023-04-24T15:33:11.008Z,29.00
2023-04-24T15:35:38.009Z,29.30
2023-04-24T15:38:05.190Z,29.60
2023-04-24T15:40:32.150Z,30.00
2023-04-24T15:42:59.134Z,30.30
2023-04-24T15:45:26.200Z,30.50
2023-04-24T15:47:53.261Z,30.60
2023-04-24T15:50:22.561Z,30.70
2023-04-24T15:52:49.642Z,30.80
2023-04-24T15:55:16.635Z,30.70
2023-04-24T15:57:43.856Z,30.60
2023-04-24T16:00:11.507Z,30.30
2023-04-24T16:02:39.122Z,30.00
2023-04-24T16:05:07.443Z,29.70
2023-04-24T16:07:35.433Z,29.40
2023-04-24T16:10:02.445Z,29.00
2023-04-24T16:12:29.696Z,28.60
2023-04-24T16:14:56.766Z,28.30
2023-04-24T16:17:23.755Z,28.10
2023-04-24T16:19:50.794Z,27.80
2023-04-24T16:22:17.897Z,27.50
2023-04-24T16:24:47.127Z,27.20
2023-04-24T16:27:15.491Z,27.00
2023-04-24T16:29:42.548Z,27.00
2023-04-24T16:32:10.158Z,26.90
2023-04-24T16:34:37.342Z,26.90
2023-04-24T16:37:05.417Z,26.80
2023-04-24T16:39:32.570Z,26.80
2023-04-24T16:42:00.344Z,26.80
2023-04-24T16:44:28.239Z,26.90
2023-04-24T16:46:55.633Z,26.80
2023-04-24T16:49:23.866Z,26.80
2023-04-24T16:51:51.185Z,26.80
2023-04-24T16:54:18.112Z,26.70
2023-04-24T16:56:45.056Z,26.70
2023-04-24T16:59:12.429Z,26.70
2023-04-24T17:01:39.375Z,26.70
2023-04-24T17:04:06.595Z,26.70
2023-04-24T17:06:33.749Z,26.60
2023-04-24T17:09:00.885Z,26.60
2023-04-24T17:11:29.894Z,26.50
2023-04-24T17:13:59.728Z,26.50
2023-04-24T17:16:27.486Z,26.40
2023-04-24T17:18:54.543Z,26.30
2023-04-24T17:21:21.484Z,26.20
2023-04-24T17:23:48.381Z,26.20
2023-04-24T17:26:15.374Z,26.00
2023-04-24T17:28:42.421Z,25.90
2023-04-24T17:31:09.358Z,25.80
2023-04-24T17:33:36.370Z,25.70
2023-04-24T17:36:03.329Z,25.60
2023-04-24T17:38:30.672Z,25.60
2023-04-24T17:40:58.355Z,25.50
2023-04-24T17:43:26.107Z,25.40
2023-04-24T17:45:57.059Z,25.30
2023-04-24T17:48:23.992Z,25.20
2023-04-24T17:50:51.717Z,25.10
2023-04-24T17:53:19.038Z,25.00
2023-04-24T17:55:49.269Z,25.00
2023-04-24T17:58:16.859Z,24.80
2023-04-24T18:00:43.897Z,24.70
2023-04-24T18:03:11.092Z,24.60
2023-04-24T18:05:39.428Z,24.50
2023-04-24T18:08:06.543Z,24.40
2023-04-24T18:10:37.263Z,24.30
2023-04-24T18:13:05.390Z,24.20
2023-04-24T18:15:32.802Z,24.10
2023-04-24T18:17:59.937Z,24.00
2023-04-24T18:20:27.242Z,23.90
2023-04-24T18:22:54.342Z,23.80
2023-04-24T18:25:26.639Z,23.70
2023-04-24T18:27:55.806Z,23.60
2023-04-24T18:30:24.575Z,23.50
2023-04-24T18:32:53.648Z,23.40
2023-04-24T18:35:21.873Z,23.40
2023-04-24T18:37:49.705Z,23.30
2023-04-24T18:40:17.467Z,23.20
2023-04-24T18:42:45.121Z,23.20
2023-04-24T18:45:14.950Z,23.10
2023-04-24T18:47:42.880Z,23.00
2023-04-24T18:50:10.954Z,23.00
2023-04-24T18:52:38.048Z,22.90
2023-04-24T18:55:06.644Z,22.80
2023-04-24T18:57:33.973Z,22.70
2023-04-24T19:00:00.967Z,22.60
2023-04-24T19:02:28.271Z,22.60
2023-04-24T19:04:55.690Z,22.50
2023-04-24T19:07:22.865Z,22.40
2023-04-24T19:09:50.021Z,22.40
2023-04-24T19:12:17.186Z,22.30
2023-04-24T19:14:45.710Z,22.30
2023-04-24T19:17:12.719Z,22.20
2023-04-24T19:19:39.728Z,22.20
2023-04-24T19:22:07.732Z,22.10
2023-04-24T19:24:37.223Z,22.10
2023-04-24T19:27:04.271Z,22.10
2023-04-24T19:29:31.315Z,22.00
2023-04-24T19:31:58.804Z,21.90
2023-04-24T19:34:26.451Z,21.90
2023-04-24T19:36:53.553Z,21.80
2023-04-24T19:39:20.724Z,21.80
2023-04-24T19:41:48.171Z,21.80
2023-04-24T19:44:17.280Z,21.70
2023-04-24T19:46:44.600Z,21.70
2023-04-24T19:49:11.988Z,21.60
2023-04-24T19:51:39.396Z,21.60
2023-04-24T19:54:06.835Z,21.50
2023-04-24T19:56:34.063Z,21.40
2023-04-24T19:59:01.156Z,21.40
2023-04-24T20:01:28.620Z,21.30
2023-04-24T20:03:56.146Z,21.30
2023-04-24T20:06:23.502Z,21.20
2023-04-24T20:08:50.953Z,21.20
2023-04-24T20:11:18.265Z,21.10
2023-04-24T20:13:45.593Z,21.10
2023-04-24T20:16:12.670Z,21.10
2023-04-24T20:18:39.764Z,21.00
2023-04-24T20:21:06.891Z,21.00
2023-04-24T20:23:33.986Z,21.00
2023-04-24T20:26:01.392Z,21.00
2023-04-24T20:28:31.508Z,20.90
2023-04-24T20:30:59.484Z,20.90
2023-04-24T20:33:28.034Z,20.90
2023-04-24T20:35:55.725Z,20.90
2023-04-24T20:38:24.337Z,20.80
2023-04-24T20:40:57.309Z,20.80
2023-04-24T20:43:28.372Z,20.80
2023-04-24T20:45:58.614Z,20.70
2023-04-24T20:48:26.490Z,20.70
2023-04-24T20:50:53.930Z,20.70
2023-04-24T20:53:21.584Z,20.60
2023-04-24T20:55:48.826Z,20.60
2023-04-24T20:58:18.338Z,20.50
2023-04-24T21:00:46.826Z,20.50
2023-04-24T21:03:13.925Z,20.40
2023-04-24T21:05:40.840Z,20.40
2023-04-24T21:08:07.786Z,20.30
2023-04-24T21:10:34.788Z,20.30
2023-04-24T21:13:01.720Z,20.30
2023-04-24T21:15:29.384Z,20.30
2023-04-24T21:17:56.935Z,20.30
2023-04-24T21:20:24.099Z,20.20
2023-04-24T21:22:51.036Z,20.20
2023-04-24T21:25:18.189Z,20.20
2023-04-24T21:27:45.367Z,20.20
2023-04-24T21:30:12.949Z,20.10
2023-04-24T21:32:40.582Z,20.10
2023-04-24T21:35:08.012Z,20.00
2023-04-24T21:37:36.281Z,19.90
2023-04-24T21:40:04.867Z,19.90
2023-04-24T21:42:32.023Z,19.90
2023-04-24T21:44:59.047Z,19.80
2023-04-24T21:47:26.017Z,19.80
2023-04-24T21:49:53.377Z,19.80
2023-04-24T21:52:20.309Z,19.70
2023-04-24T21:54:47.263Z,19.60
2023-04-24T21:57:14.486Z,19.60
2023-04-24T21:59:41.550Z,19.50
2023-04-24T22:02:08.665Z,19.50
2023-04-24T22:04:35.854Z,19.40
2023-04-24T22:07:03.041Z,19.40
2023-04-24T22:09:30.095Z,19.30
2023-04-24T22:11:57.081Z,19.30
2023-04-24T22:14:24.046Z,19.30
2023-04-24T22:16:50.958Z,19.20
2023-04-24T22:19:17.929Z,19.20
2023-04-24T22:21:45.098Z,19.20
2023-04-24T22:24:12.204Z,19.10
2023-04-24T22:26:39.162Z,19.10
2023-04-24T22:29:06.346Z,19.10
2023-04-24T22:31:33.394Z,19.00
2023-04-24T22:34:00.413Z,19.00
2023-04-24T22:36:28.532Z,19.00
2023-04-24T22:38:55.748Z,18.90
2023-04-24T22:41:23.308Z,18.90
2023-04-24T22:43:50.526Z,18.80
2023-04-24T22:46:17.933Z,18.90
2023-04-24T22:48:45.594Z,18.80
2023-04-24T22:51:12.692Z,18.80
2023-04-24T22:53:39.643Z,18.80
2023-04-24T22:56:06.987Z,18.80
2023-04-24T22:58:33.926Z,18.80
2023-04-24T23:01:00.947Z,18.80
2023-04-24T23:03:28.071Z,18.80
2023-04-24T23:05:55.102Z,18.70
2023-04-24T23:08:22.078Z,18.70
2023-04-24T23:10:49.033Z,18.70
2023-04-24T23:13:16.372Z,18.70
2023-04-24T23:15:43.570Z,18.70
2023-04-24T23:18:11.630Z,18.70
2023-04-24T23:20:39.023Z,18.60
2023-04-24T23:23:05.955Z,18.60
2023-04-24T23:25:33.053Z,18.60
2023-04-24T23:28:00.031Z,18.60
2023-04-24T23:30:27.122Z,18.60
2023-04-24T23:32:54.150Z,18.50
2023-04-24T23:35:21.208Z,18.50
2023-04-24T23:37:48.363Z,18.50
2023-04-24T23:40:15.331Z,18.50
2023-04-24T23:42:42.225Z,18.50
2023-04-24T23:45:10.998Z,18.50
2023-04-24T23:47:38.460Z,18.50
2023-04-24T23:50:05.948Z,18.50
2023-04-24T23:52:35.265Z,18.50
2023-04-24T23:55:05.434Z,18.50
2023-04-24T23:57:32.417Z,18.50
2023-04-24T23:59:59.359Z,18.50
